Time,TemperatureF,DewpointF,PressureIn,WindDirection,WindDirectionDegrees,WindSpeedMPH,WindSpeedGustMPH,Humidity,HourlyPrecipIn,Conditions,Clouds,dailyrainin,SolarRadiationWatts/m^2,SoftwareType,DateUTC
2013-04-17 00:02:00,75.9,69.0,30.11,ESE,113,8.0,15.0,79,0.00,,,0.00,0,weatherlink.com 1.10,2013-04-17 04:02:00,
2013-04-17 00:17:00,75.4,69.0,30.12,ESE,117,4.0,10.0,80,0.00,,,0.00,0,weatherlink.com 1.10,2013-04-17 04:17:00,
2013-04-17 00:32:00,75.1,69.0,30.12,ESE,108,3.0,14.0,80,0.00,,,0.00,0,weatherlink.com 1.10,2013-04-17 04:32:00,
2013-04-17 00:47:00,74.7,69.0,30.12,ESE,111,8.0,10.0,81,0.00,,,0.00,0,weatherlink.com 1.10,2013-04-17 04:47:00,
2013-04-17 01:02:00,74.3,68.0,30.12,NE,56,6.0,10.0,81,0.00,,,0.00,0,weatherlink.com 1.10,2013-04-17 05:02:00,
2013-04-17 01:17:00,74.1,68.0,30.11,East,82,7.0,13.0,81,0.00,,,0.00,0,weatherlink.com 1.10,2013-04-17 05:17:00,
2013-04-17 01:32:00,73.7,68.0,30.11,SE,136,5.0,14.0,82,0.00,,,0.00,0,weatherlink.com 1.10,2013-04-17 05:32:00,
2013-04-17 01:47:00,73.5,68.0,30.11,ESE,105,7.0,11.0,83,0.00,,,0.00,0,weatherlink.com 1.10,2013-04-17 05:47:00,
2013-04-17 02:02:00,73.1,68.0,30.10,ENE,74,10.0,10.0,84,0.00,,,0.00,0,weatherlink.com 1.10,2013-04-17 06:02:00,
2013-04-17 02:17:00,73.0,68.0,30.10,ESE,113,3.0,14.0,84,0.00,,,0.00,0,weatherlink.com 1.10,2013-04-17 06:17:00,
2013-04-17 02:32:00,72.7,68.0,30.10,ENE,74,2.0,8.0,85,0.00,,,0.00,0,weatherlink.com 1.10,2013-04-17 06:32:00,
2013-04-17 02:47:00,72.3,68.0,30.10,East,86,2.0,8.0,86,0.00,,,0.00,0,weatherlink.com 1.10,2013-04-17 06:47:00,
2013-04-17 03:02:00,72.0,68.0,30.09,NNE,26,3.0,7.0,87,0.00,,,0.00,0,weatherlink.com 1.10,2013-04-17 07:02:00,
2013-04-17 03:17:00,71.7,68.0,30.09,ENE,60,2.0,7.0,87,0.00,,,0.00,0,weatherlink.com 1.10,2013-04-17 07:17:00,
2013-04-17 03:32:00,71.5,68.0,30.09,ENE,59,2.0,7.0,87,0.00,,,0.00,0,weatherlink.com 1.10,2013-04-17 07:32:00,
2013-04-17 03:47:00,71.5,68.0,30.09,East,92,5.0,8.0,87,0.00,,,0.00,0,weatherlink.com 1.10,2013-04-17 07:47:00,
2013-04-17 04:02:00,71.3,68.0,30.09,ENE,59,3.0,8.0,88,0.00,,,0.00,0,weatherlink.com 1.10,2013-04-17 08:02:00,
2013-04-17 04:17:00,71.2,68.0,30.09,ENE,74,3.0,7.0,88,0.00,,,0.00,0,weatherlink.com 1.10,2013-04-17 08:17:00,
2013-04-17 04:32:00,71.0,67.0,30.09,East,86,1.0,6.0,88,0.00,,,0.00,0,weatherlink.com 1.10,2013-04-17 08:32:00,
2013-04-17 04:47:00,70.8,67.0,30.08,East,96,3.0,5.0,88,0.00,,,0.00,0,weatherlink.com 1.10,2013-04-17 08:47:00,
2013-04-17 05:02:00,70.6,67.0,30.08,East,97,2.0,5.0,89,0.00,,,0.00,0,weatherlink.com 1.10,2013-04-17 09:02:00,
2013-04-17 05:17:00,70.5,67.0,30.09,ENE,71,2.0,5.0,89,0.00,,,0.00,0,weatherlink.com 1.10,2013-04-17 09:17:00,
2013-04-17 05:32:00,70.1,67.0,30.09,East,88,1.0,3.0,90,0.00,,,0.00,0,weatherlink.com 1.10,2013-04-17 09:32:00,
2013-04-17 05:48:00,69.9,67.0,30.09,ENE,57,2.0,4.0,90,0.00,,,0.00,0,weatherlink.com 1.10,2013-04-17 09:48:00,
2013-04-17 06:03:00,69.8,67.0,30.09,East,88,1.0,5.0,90,0.00,,,0.00,0,weatherlink.com 1.10,2013-04-17 10:03:00,
2013-04-17 06:18:00,69.7,67.0,30.10,East,86,2.0,5.0,91,0.00,,,0.00,0,weatherlink.com 1.10,2013-04-17 10:18:00,
2013-04-17 06:33:00,69.7,67.0,30.10,NE,54,1.0,5.0,91,0.00,,,0.00,0,weatherlink.com 1.10,2013-04-17 10:33:00,
2013-04-17 06:48:00,69.4,67.0,30.10,ENE,57,2.0,3.0,91,0.00,,,0.00,0,weatherlink.com 1.10,2013-04-17 10:48:00,
2013-04-17 07:03:00,69.1,67.0,30.10,ENE,57,0.0,3.0,92,0.00,,,0.00,7,weatherlink.com 1.10,2013-04-17 11:03:00,
2013-04-17 07:18:00,69.1,67.0,30.11,ENE,59,1.0,3.0,92,0.00,,,0.00,21,weatherlink.com 1.10,2013-04-17 11:18:00,
2013-04-17 07:33:00,69.4,67.0,30.11,NE,36,3.0,5.0,93,0.00,,,0.00,49,weatherlink.com 1.10,2013-04-17 11:33:00,
2013-04-17 07:48:00,70.3,68.0,30.11,East,84,2.0,5.0,92,0.00,,,0.00,107,weatherlink.com 1.10,2013-04-17 11:48:00,
2013-04-17 08:03:00,71.5,69.0,30.12,NNE,15,2.0,6.0,90,0.00,,,0.00,169,weatherlink.com 1.10,2013-04-17 12:03:00,
2013-04-17 08:18:00,72.5,69.0,30.12,NNE,16,3.0,7.0,88,0.00,,,0.00,146,weatherlink.com 1.10,2013-04-17 12:18:00,
2013-04-17 08:33:00,73.0,69.0,30.12,ENE,71,2.0,9.0,86,0.00,,,0.00,135,weatherlink.com 1.10,2013-04-17 12:33:00,
2013-04-17 08:48:00,73.2,69.0,30.13,ESE,114,3.0,8.0,85,0.00,,,0.00,149,weatherlink.com 1.10,2013-04-17 12:48:00,
2013-04-17 09:03:00,74.4,69.0,30.12,ENE,61,5.0,9.0,83,0.00,,,0.00,366,weatherlink.com 1.10,2013-04-17 13:03:00,
2013-04-17 09:18:00,75.6,69.0,30.12,ENE,74,2.0,9.0,79,0.00,,,0.00,197,weatherlink.com 1.10,2013-04-17 13:18:00,
2013-04-17 09:33:00,76.0,69.0,30.12,NNW,346,4.0,11.0,78,0.00,,,0.00,332,weatherlink.com 1.10,2013-04-17 13:33:00,
2013-04-17 09:48:00,76.8,68.0,30.11,ENE,69,9.0,14.0,75,0.00,,,0.00,540,weatherlink.com 1.10,2013-04-17 13:48:00,
2013-04-17 10:03:00,78.2,68.0,30.11,NE,42,4.0,13.0,72,0.00,,,0.00,610,weatherlink.com 1.10,2013-04-17 14:03:00,
2013-04-17 10:18:00,79.8,68.0,30.11,ESE,112,9.0,9.0,68,0.00,,,0.00,633,weatherlink.com 1.10,2013-04-17 14:18:00,
2013-04-17 10:33:00,79.4,67.0,30.11,NNE,30,5.0,10.0,67,0.00,,,0.00,656,weatherlink.com 1.10,2013-04-17 14:33:00,
2013-04-17 10:48:00,80.2,67.0,30.10,North,5,3.0,14.0,65,0.00,,,0.00,722,weatherlink.com 1.10,2013-04-17 14:48:00,
2013-04-17 11:03:00,80.3,66.0,30.11,NE,44,5.0,13.0,61,0.00,,,0.00,766,weatherlink.com 1.10,2013-04-17 15:03:00,
2013-04-17 11:18:00,80.7,66.0,30.10,East,86,6.0,11.0,62,0.00,,,0.00,856,weatherlink.com 1.10,2013-04-17 15:18:00,
2013-04-17 11:34:00,82.6,68.0,30.10,NNE,26,8.0,11.0,62,0.00,,,0.00,870,weatherlink.com 1.10,2013-04-17 15:34:00,
2013-04-17 11:49:00,81.8,66.0,30.10,NE,42,4.0,9.0,59,0.00,,,0.00,754,weatherlink.com 1.10,2013-04-17 15:49:00,
2013-04-17 12:04:00,82.9,66.0,30.09,ENE,71,4.0,11.0,56,0.00,,,0.00,916,weatherlink.com 1.10,2013-04-17 16:04:00,
2013-04-17 12:19:00,83.2,65.0,30.09,ENE,63,5.0,12.0,54,0.00,,,0.00,951,weatherlink.com 1.10,2013-04-17 16:19:00,
2013-04-17 12:34:00,83.8,66.0,30.08,NE,56,5.0,11.0,55,0.00,,,0.00,970,weatherlink.com 1.10,2013-04-17 16:34:00,
2013-04-17 12:49:00,83.4,64.0,30.07,East,97,8.0,13.0,52,0.00,,,0.00,1016,weatherlink.com 1.10,2013-04-17 16:49:00,
2013-04-17 13:04:00,85.3,66.0,30.07,ENE,58,5.0,10.0,53,0.00,,,0.00,988,weatherlink.com 1.10,2013-04-17 17:04:00,
2013-04-17 13:19:00,85.2,64.0,30.07,NNE,32,6.0,11.0,50,0.00,,,0.00,1005,weatherlink.com 1.10,2013-04-17 17:19:00,
2013-04-17 13:34:00,85.2,64.0,30.07,SE,126,7.0,14.0,50,0.00,,,0.00,1014,weatherlink.com 1.10,2013-04-17 17:34:00,
2013-04-17 13:49:00,85.7,65.0,30.06,NNW,340,6.0,12.0,50,0.00,,,0.00,1027,weatherlink.com 1.10,2013-04-17 17:49:00,
2013-04-17 14:04:00,87.1,64.0,30.06,ESE,111,9.0,12.0,47,0.00,,,0.00,1034,weatherlink.com 1.10,2013-04-17 18:04:00,
2013-04-17 14:19:00,86.8,65.0,30.05,NE,47,4.0,12.0,49,0.00,,,0.00,1030,weatherlink.com 1.10,2013-04-17 18:19:00,
2013-04-17 14:34:00,87.1,65.0,30.05,NE,53,3.0,10.0,48,0.00,,,0.00,1092,weatherlink.com 1.10,2013-04-17 18:34:00,
2013-04-17 14:49:00,86.6,66.0,30.04,ESE,103,5.0,12.0,50,0.00,,,0.00,803,weatherlink.com 1.10,2013-04-17 18:49:00,
2013-04-17 15:19:00,87.6,65.0,30.03,NNW,342,2.0,9.0,47,0.00,,,0.00,1062,weatherlink.com 1.10,2013-04-17 19:19:00,
2013-04-17 15:34:00,86.8,63.0,30.03,NE,49,3.0,10.0,45,0.00,,,0.00,220,weatherlink.com 1.10,2013-04-17 19:34:00,
2013-04-17 15:49:00,87.2,65.0,30.02,NNW,329,3.0,9.0,47,0.00,,,0.00,865,weatherlink.com 1.10,2013-04-17 19:49:00,
2013-04-17 16:04:00,85.5,62.0,30.02,NNE,24,1.0,8.0,46,0.00,,,0.00,441,weatherlink.com 1.10,2013-04-17 20:04:00,
2013-04-17 16:19:00,86.1,64.0,30.02,NE,34,2.0,7.0,47,0.00,,,0.00,304,weatherlink.com 1.10,2013-04-17 20:19:00,
2013-04-17 16:34:00,86.4,64.0,30.01,NNW,338,5.0,10.0,48,0.00,,,0.00,861,weatherlink.com 1.10,2013-04-17 20:34:00,
2013-04-17 16:49:00,87.4,64.0,30.01,East,93,8.0,10.0,45,0.00,,,0.00,703,weatherlink.com 1.10,2013-04-17 20:49:00,
2013-04-17 17:04:00,86.2,63.0,30.00,East,98,8.0,9.0,46,0.00,,,0.00,439,weatherlink.com 1.10,2013-04-17 21:04:00,
2013-04-17 17:19:00,87.8,62.0,30.00,ENE,62,3.0,7.0,42,0.00,,,0.00,601,weatherlink.com 1.10,2013-04-17 21:19:00,
2013-04-17 17:34:00,86.8,62.0,30.00,East,95,3.0,8.0,44,0.00,,,0.00,492,weatherlink.com 1.10,2013-04-17 21:34:00,
2013-04-17 17:49:00,86.3,62.0,30.00,SE,136,4.0,11.0,44,0.00,,,0.00,257,weatherlink.com 1.10,2013-04-17 21:49:00,
2013-04-17 18:04:00,86.3,63.0,30.00,East,96,6.0,7.0,45,0.00,,,0.00,439,weatherlink.com 1.10,2013-04-17 22:04:00,
2013-04-17 18:19:00,85.7,61.0,30.00,ESE,103,4.0,8.0,44,0.00,,,0.00,130,weatherlink.com 1.10,2013-04-17 22:19:00,
2013-04-17 18:34:00,85.2,62.0,30.00,East,101,5.0,12.0,46,0.00,,,0.00,163,weatherlink.com 1.10,2013-04-17 22:34:00,
2013-04-17 18:49:00,85.0,62.0,30.00,East,83,8.0,8.0,46,0.00,,,0.00,200,weatherlink.com 1.10,2013-04-17 22:49:00,
2013-04-17 19:04:00,84.5,62.0,30.00,SE,127,3.0,7.0,47,0.00,,,0.00,142,weatherlink.com 1.10,2013-04-17 23:04:00,
2013-04-17 19:19:00,84.2,64.0,30.00,ESE,122,4.0,6.0,50,0.00,,,0.00,49,weatherlink.com 1.10,2013-04-17 23:19:00,
2013-04-17 19:34:00,83.5,63.0,30.01,ESE,121,2.0,5.0,51,0.00,,,0.00,26,weatherlink.com 1.10,2013-04-17 23:34:00,
2013-04-17 19:49:00,82.9,63.0,30.01,ESE,115,4.0,5.0,52,0.00,,,0.00,9,weatherlink.com 1.10,2013-04-17 23:49:00,
2013-04-17 20:04:00,82.4,64.0,30.00,ESE,107,1.0,5.0,54,0.00,,,0.00,0,weatherlink.com 1.10,2013-04-18 00:04:00,
2013-04-17 20:19:00,82.1,65.0,30.00,ESE,111,1.0,9.0,56,0.00,,,0.00,0,weatherlink.com 1.10,2013-04-18 00:19:00,
2013-04-17 20:34:00,81.8,65.0,30.01,East,85,8.0,8.0,56,0.00,,,0.00,0,weatherlink.com 1.10,2013-04-18 00:34:00,
2013-04-17 20:49:00,81.4,65.0,30.02,East,90,5.0,10.0,57,0.00,,,0.00,0,weatherlink.com 1.10,2013-04-18 00:49:00,
2013-04-17 21:04:00,80.8,65.0,30.02,East,93,5.0,8.0,58,0.00,,,0.00,0,weatherlink.com 1.10,2013-04-18 01:04:00,
2013-04-17 21:19:00,80.2,66.0,30.03,East,94,5.0,10.0,62,0.00,,,0.00,0,weatherlink.com 1.10,2013-04-18 01:19:00,
2013-04-17 21:49:00,78.7,67.0,30.04,East,95,13.0,16.0,67,0.00,,,0.00,0,weatherlink.com 1.10,2013-04-18 01:49:00,
2013-04-17 22:04:00,78.3,67.0,30.04,ENE,67,5.0,11.0,68,0.00,,,0.00,0,weatherlink.com 1.10,2013-04-18 02:04:00,
2013-04-17 22:19:00,77.9,67.0,30.04,East,82,5.0,11.0,68,0.00,,,0.00,0,weatherlink.com 1.10,2013-04-18 02:19:00,
2013-04-17 22:34:00,77.6,66.0,30.04,East,101,9.0,17.0,67,0.00,,,0.00,0,weatherlink.com 1.10,2013-04-18 02:34:00,
2013-04-17 22:49:00,77.2,66.0,30.03,ENE,63,8.0,14.0,68,0.00,,,0.00,0,weatherlink.com 1.10,2013-04-18 02:49:00,
2013-04-17 23:19:00,76.1,65.0,30.03,NNE,15,6.0,15.0,69,0.00,,,0.00,0,weatherlink.com 1.10,2013-04-18 03:19:00,
2013-04-17 23:34:00,75.7,65.0,30.03,ESE,111,4.0,13.0,70,0.00,,,0.00,0,weatherlink.com 1.10,2013-04-18 03:34:00,
2013-04-17 23:49:00,75.4,66.0,30.03,ESE,120,9.0,15.0,72,0.00,,,0.00,0,weatherlink.com 1.10,2013-04-18 03:49:00,